UAE232 KIAD-OMDB
Flight info
| Callsign | UAE232 |
|---|---|
| Flight time | N/A |
| Altitude | 29000 |
| Route | JCOBY4 SWANN DCT BROSS Q419 RBV Q430 ACK DCT BRADD N175G PORTI/M086F320 DCT 47N050W 49N040W 51N030W 53N020W DCT MALOT DCT GISTI/N0496F330 DCT LESLU DCT LIZAD DCT JSY DCT ARSUK DCT RESMI DCT ODEBU DCT OGULO DCT OKASI DCT OKEKO DCT MOU DCT MADIV DCT MOKIP DCT TUFTA DCT KOGAS DCT MEDAM DCT NITAM DCT MOGBO DCT UPDIN DCT SOMAS/N0496F350 DCT BELIX DCT SALUN N705 MMA P751 DASUM Y234 FYM M872 BDB Y214 KODIS/N0505F370 Y214 RAPMA DCT KUVSO DCT KATIT DCT PEKEM M628 RIGIL G783 ELUDA/N0515F350 G783 ASPED Q308 KIPOK Q568 IMPED |
| Aircraft | B77W/H-SDE1E2E3FGHIJ2J3J4J5M1RWXY/LB1D1 |
Departure
| Time | N/A |
|---|---|
| Airport | Washington Dulles International Airport (KIAD) |
Arrival
| Time | 2026-05-05 19:13 |
|---|---|
| Airport | Dubai International Airport (OMDB) |
| Time | Latitude | Longitude | Altitude | Speed | Heading |
|---|---|---|---|---|---|
| 2026-05-05 15:15 | 34.53219 | 23.53241 | 35126 ft | 534 kts | 124° |
| 2026-05-05 15:16 | 34.48983 | 23.60629 | 35122 ft | 534 kts | 124° |
| 2026-05-05 15:16 | 34.44736 | 23.68023 | 35123 ft | 534 kts | 124° |
| 2026-05-05 15:17 | 34.40479 | 23.75419 | 35132 ft | 535 kts | 124° |
| 2026-05-05 15:17 | 34.36219 | 23.82804 | 35106 ft | 535 kts | 124° |
| 2026-05-05 15:18 | 34.31954 | 23.90184 | 35120 ft | 535 kts | 124° |
| 2026-05-05 15:18 | 34.27688 | 23.97549 | 35113 ft | 535 kts | 124° |
| 2026-05-05 15:19 | 34.23484 | 24.04792 | 35118 ft | 535 kts | 124° |
| 2026-05-05 15:19 | 34.19201 | 24.12157 | 35122 ft | 536 kts | 124° |
| 2026-05-05 15:20 | 34.14934 | 24.19481 | 35115 ft | 536 kts | 124° |
| 2026-05-05 15:20 | 34.10633 | 24.26847 | 35112 ft | 537 kts | 125° |
| 2026-05-05 15:21 | 34.06329 | 24.34207 | 35112 ft | 537 kts | 125° |
| 2026-05-05 15:21 | 34.02011 | 24.41557 | 35121 ft | 537 kts | 126° |
| 2026-05-05 15:22 | 33.97108 | 24.48309 | 35102 ft | 536 kts | 139° |
| 2026-05-05 15:22 | 33.91523 | 24.54253 | 35109 ft | 536 kts | 140° |
| 2026-05-05 15:23 | 33.85912 | 24.60172 | 35115 ft | 536 kts | 140° |
| 2026-05-05 15:23 | 33.80325 | 24.66125 | 35109 ft | 536 kts | 140° |
| 2026-05-05 15:24 | 33.74763 | 24.72082 | 35109 ft | 536 kts | 140° |
| 2026-05-05 15:24 | 33.69227 | 24.78009 | 35109 ft | 536 kts | 140° |
| 2026-05-05 15:25 | 33.63622 | 24.83993 | 35106 ft | 536 kts | 140° |
| 2026-05-05 15:25 | 33.58048 | 24.89930 | 35104 ft | 535 kts | 140° |
| 2026-05-05 15:26 | 33.52508 | 24.95818 | 35107 ft | 535 kts | 140° |
| 2026-05-05 15:26 | 33.47029 | 25.01633 | 35122 ft | 535 kts | 140° |
| 2026-05-05 15:27 | 33.41455 | 25.07538 | 35109 ft | 535 kts | 140° |
| 2026-05-05 15:27 | 33.35871 | 25.13443 | 35112 ft | 535 kts | 140° |
| 2026-05-05 15:28 | 33.30291 | 25.19333 | 35110 ft | 535 kts | 140° |
| 2026-05-05 15:28 | 33.24716 | 25.25208 | 35110 ft | 535 kts | 140° |
| 2026-05-05 15:29 | 33.19124 | 25.31090 | 35110 ft | 535 kts | 140° |
| 2026-05-05 15:29 | 33.13542 | 25.36951 | 35116 ft | 535 kts | 140° |
| 2026-05-05 15:30 | 33.07947 | 25.42815 | 35116 ft | 535 kts | 140° |
| 2026-05-05 15:30 | 33.02348 | 25.48673 | 35114 ft | 536 kts | 140° |
| 2026-05-05 15:31 | 32.96731 | 25.54540 | 35112 ft | 541 kts | 141° |
| 2026-05-05 15:31 | 32.91042 | 25.60469 | 35120 ft | 544 kts | 141° |
| 2026-05-05 15:32 | 32.85335 | 25.66409 | 35118 ft | 546 kts | 141° |
| 2026-05-05 15:32 | 32.79617 | 25.72351 | 35108 ft | 545 kts | 141° |
| 2026-05-05 15:33 | 32.73910 | 25.78270 | 35111 ft | 543 kts | 141° |
| 2026-05-05 15:33 | 32.68228 | 25.84153 | 35103 ft | 541 kts | 141° |
| 2026-05-05 15:34 | 32.62551 | 25.90020 | 35109 ft | 540 kts | 141° |
| 2026-05-05 15:34 | 32.56892 | 25.95858 | 35120 ft | 539 kts | 141° |
| 2026-05-05 15:35 | 32.51328 | 26.01587 | 35114 ft | 539 kts | 141° |
| 2026-05-05 15:35 | 32.45697 | 26.07376 | 35115 ft | 539 kts | 141° |
| 2026-05-05 15:36 | 32.40019 | 26.13204 | 35115 ft | 540 kts | 141° |
| 2026-05-05 15:36 | 32.34338 | 26.19024 | 35119 ft | 540 kts | 141° |
| 2026-05-05 15:37 | 32.28649 | 26.24842 | 35115 ft | 541 kts | 141° |
| 2026-05-05 15:37 | 32.22945 | 26.30667 | 35115 ft | 541 kts | 142° |
| 2026-05-05 15:38 | 32.17241 | 26.36479 | 35115 ft | 542 kts | 142° |
| 2026-05-05 15:38 | 32.11534 | 26.42287 | 35114 ft | 542 kts | 142° |
| 2026-05-05 15:39 | 32.05824 | 26.48087 | 35098 ft | 541 kts | 142° |
| 2026-05-05 15:39 | 32.00119 | 26.53872 | 35114 ft | 541 kts | 142° |
| 2026-05-05 15:40 | 31.94429 | 26.59633 | 35117 ft | 540 kts | 142° |
| 2026-05-05 15:40 | 31.88764 | 26.65357 | 35120 ft | 540 kts | 142° |
| 2026-05-05 15:41 | 31.83054 | 26.71118 | 35128 ft | 540 kts | 142° |
| 2026-05-05 15:41 | 31.77348 | 26.76864 | 35131 ft | 540 kts | 142° |
| 2026-05-05 15:42 | 31.71643 | 26.82602 | 35130 ft | 539 kts | 143° |
| 2026-05-05 15:42 | 31.65941 | 26.88326 | 35143 ft | 539 kts | 143° |
| 2026-05-05 15:43 | 31.60231 | 26.94047 | 35143 ft | 539 kts | 143° |
| 2026-05-05 15:43 | 31.54537 | 26.99745 | 35155 ft | 539 kts | 143° |
| 2026-05-05 15:44 | 31.48920 | 27.05356 | 35166 ft | 539 kts | 143° |
| 2026-05-05 15:44 | 31.43206 | 27.11055 | 35128 ft | 539 kts | 143° |
| 2026-05-05 15:45 | 31.37494 | 27.16744 | 35157 ft | 538 kts | 143° |
| 2026-05-05 15:45 | 31.32027 | 27.22756 | 35132 ft | 542 kts | 135° |
| 2026-05-05 15:46 | 31.27444 | 27.29791 | 35135 ft | 546 kts | 126° |
| 2026-05-05 15:46 | 31.23268 | 27.37201 | 35141 ft | 546 kts | 126° |
| 2026-05-05 15:47 | 31.19064 | 27.44529 | 35144 ft | 547 kts | 126° |
| 2026-05-05 15:47 | 31.14765 | 27.51910 | 35160 ft | 554 kts | 126° |
| 2026-05-05 15:48 | 31.10381 | 27.59377 | 35159 ft | 559 kts | 127° |
| 2026-05-05 15:48 | 31.05910 | 27.66849 | 35151 ft | 563 kts | 127° |
| 2026-05-05 15:49 | 31.01415 | 27.74337 | 35134 ft | 564 kts | 127° |
| 2026-05-05 15:49 | 30.96927 | 27.81824 | 35137 ft | 563 kts | 127° |
| 2026-05-05 15:50 | 30.92444 | 27.89301 | 35134 ft | 562 kts | 127° |
| 2026-05-05 15:50 | 30.87966 | 27.96755 | 35132 ft | 561 kts | 127° |
| 2026-05-05 15:51 | 30.83568 | 28.04060 | 35132 ft | 560 kts | 127° |
| 2026-05-05 15:51 | 30.79098 | 28.11468 | 35126 ft | 559 kts | 127° |
| 2026-05-05 15:52 | 30.74632 | 28.18857 | 35130 ft | 558 kts | 128° |
| 2026-05-05 15:52 | 30.70167 | 28.26231 | 35117 ft | 558 kts | 128° |
| 2026-05-05 15:53 | 30.65700 | 28.33594 | 35118 ft | 557 kts | 128° |
| 2026-05-05 15:53 | 30.61261 | 28.40898 | 35115 ft | 556 kts | 128° |
| 2026-05-05 15:54 | 30.57518 | 28.47047 | 35111 ft | 556 kts | 128° |
| 2026-05-05 15:54 | 30.53055 | 28.54365 | 35112 ft | 556 kts | 128° |
| 2026-05-05 15:55 | 30.48579 | 28.61692 | 35095 ft | 556 kts | 128° |
| 2026-05-05 15:55 | 30.44103 | 28.69004 | 35098 ft | 556 kts | 128° |
| 2026-05-05 15:56 | 30.39650 | 28.76268 | 35098 ft | 556 kts | 128° |
| 2026-05-05 15:56 | 30.35164 | 28.83569 | 35095 ft | 556 kts | 128° |
| 2026-05-05 15:57 | 30.30668 | 28.90876 | 35084 ft | 557 kts | 128° |
| 2026-05-05 15:57 | 30.26172 | 28.98170 | 35089 ft | 557 kts | 128° |
| 2026-05-05 15:58 | 30.21745 | 29.05341 | 35059 ft | 556 kts | 129° |
| 2026-05-05 15:58 | 30.17251 | 29.12613 | 35074 ft | 555 kts | 128° |
| 2026-05-05 15:59 | 30.12766 | 29.19885 | 35082 ft | 555 kts | 128° |
| 2026-05-05 15:59 | 30.08330 | 29.27168 | 35077 ft | 555 kts | 128° |
| 2026-05-05 16:00 | 30.03923 | 29.34493 | 35082 ft | 555 kts | 128° |
| 2026-05-05 16:00 | 29.99529 | 29.41782 | 35079 ft | 554 kts | 128° |
| 2026-05-05 16:01 | 29.95108 | 29.49079 | 35080 ft | 554 kts | 128° |
| 2026-05-05 16:01 | 29.90685 | 29.56358 | 35066 ft | 554 kts | 128° |
| 2026-05-05 16:02 | 29.86260 | 29.63628 | 35067 ft | 554 kts | 128° |
| 2026-05-05 16:02 | 29.81834 | 29.70888 | 35070 ft | 554 kts | 128° |
| 2026-05-05 16:03 | 29.77405 | 29.78143 | 35071 ft | 554 kts | 128° |
| 2026-05-05 16:03 | 29.72966 | 29.85400 | 35062 ft | 554 kts | 129° |
| 2026-05-05 16:04 | 29.68560 | 29.92591 | 35064 ft | 554 kts | 129° |
| 2026-05-05 16:04 | 29.64111 | 29.99837 | 35061 ft | 554 kts | 129° |
| 2026-05-05 16:05 | 29.59737 | 30.06951 | 35060 ft | 554 kts | 129° |
| 2026-05-05 16:05 | 29.55285 | 30.14179 | 35058 ft | 554 kts | 129° |
| 2026-05-05 16:06 | 29.50826 | 30.21405 | 35060 ft | 554 kts | 129° |
| 2026-05-05 16:06 | 29.46369 | 30.28617 | 35066 ft | 555 kts | 129° |
| 2026-05-05 16:07 | 29.41895 | 30.35844 | 35066 ft | 555 kts | 129° |
| 2026-05-05 16:07 | 29.37090 | 30.42691 | 35056 ft | 548 kts | 138° |
| 2026-05-05 16:08 | 29.31772 | 30.48956 | 35057 ft | 548 kts | 139° |
| 2026-05-05 16:08 | 29.26448 | 30.55187 | 35054 ft | 548 kts | 139° |
| 2026-05-05 16:09 | 29.21145 | 30.61465 | 35074 ft | 548 kts | 139° |
| 2026-05-05 16:09 | 29.15854 | 30.67762 | 35074 ft | 549 kts | 139° |
| 2026-05-05 16:10 | 29.10561 | 30.74052 | 35062 ft | 549 kts | 139° |
| 2026-05-05 16:10 | 29.05255 | 30.80341 | 35079 ft | 549 kts | 139° |
| 2026-05-05 16:11 | 28.99960 | 30.86603 | 35062 ft | 548 kts | 139° |
| 2026-05-05 16:12 | 28.89396 | 30.99070 | 35065 ft | 548 kts | 139° |
| 2026-05-05 16:13 | 28.76189 | 31.14604 | 35080 ft | 548 kts | 139° |
| 2026-05-05 16:13 | 28.70918 | 31.20788 | 35081 ft | 547 kts | 139° |
| 2026-05-05 16:14 | 28.60622 | 31.33588 | 35086 ft | 547 kts | 136° |
| 2026-05-05 16:15 | 28.50469 | 31.46451 | 35098 ft | 546 kts | 137° |
| 2026-05-05 16:16 | 28.40262 | 31.59224 | 35092 ft | 545 kts | 137° |
| 2026-05-05 16:17 | 28.32614 | 31.68779 | 35088 ft | 545 kts | 137° |
| 2026-05-05 16:18 | 28.24958 | 31.78323 | 35081 ft | 543 kts | 137° |
| 2026-05-05 16:19 | 28.17360 | 31.87774 | 35081 ft | 542 kts | 137° |
| 2026-05-05 16:19 | 28.09727 | 31.97248 | 35084 ft | 542 kts | 137° |
| 2026-05-05 16:20 | 28.00519 | 32.10677 | 35059 ft | 553 kts | 123° |
| 2026-05-05 16:22 | 27.91464 | 32.29802 | 35036 ft | 553 kts | 123° |
| 2026-05-05 16:23 | 27.84087 | 32.45039 | 35009 ft | 552 kts | 123° |
| 2026-05-05 16:23 | 27.78542 | 32.56449 | 35009 ft | 553 kts | 123° |
| 2026-05-05 16:24 | 27.74832 | 32.64074 | 34997 ft | 553 kts | 123° |
| 2026-05-05 16:25 | 27.69271 | 32.75478 | 35008 ft | 553 kts | 123° |
| 2026-05-05 16:25 | 27.63712 | 32.86845 | 35001 ft | 553 kts | 123° |
| 2026-05-05 16:26 | 27.56328 | 33.01898 | 34997 ft | 553 kts | 124° |
| 2026-05-05 16:27 | 27.52596 | 33.09487 | 34989 ft | 553 kts | 124° |
| 2026-05-05 16:27 | 27.48858 | 33.17076 | 34987 ft | 553 kts | 124° |
| 2026-05-05 16:28 | 27.45115 | 33.24658 | 34996 ft | 553 kts | 124° |
| 2026-05-05 16:28 | 27.41373 | 33.32227 | 34991 ft | 553 kts | 124° |
| 2026-05-05 16:29 | 27.37627 | 33.39792 | 34987 ft | 553 kts | 124° |
| 2026-05-05 16:29 | 27.33870 | 33.47359 | 34969 ft | 553 kts | 124° |
| 2026-05-05 16:30 | 27.30118 | 33.54900 | 34981 ft | 552 kts | 124° |
| 2026-05-05 16:30 | 27.26391 | 33.62382 | 34984 ft | 552 kts | 124° |
| 2026-05-05 16:31 | 27.22637 | 33.69911 | 34970 ft | 552 kts | 125° |
| 2026-05-05 16:31 | 27.18881 | 33.77431 | 34967 ft | 551 kts | 124° |
| 2026-05-05 16:32 | 27.15641 | 33.85272 | 34972 ft | 557 kts | 116° |
| 2026-05-05 16:32 | 27.12836 | 33.93394 | 34968 ft | 557 kts | 116° |
| 2026-05-05 16:33 | 27.10058 | 34.01360 | 34958 ft | 555 kts | 117° |
| 2026-05-05 16:33 | 27.07189 | 34.09408 | 34959 ft | 554 kts | 117° |
| 2026-05-05 16:34 | 27.04315 | 34.17426 | 34970 ft | 553 kts | 117° |
| 2026-05-05 16:34 | 27.01446 | 34.25437 | 34954 ft | 553 kts | 117° |
| 2026-05-05 16:35 | 26.98590 | 34.33383 | 34954 ft | 553 kts | 117° |
| 2026-05-05 16:35 | 26.95709 | 34.41384 | 34948 ft | 553 kts | 117° |
| 2026-05-05 16:36 | 26.92823 | 34.49384 | 34944 ft | 554 kts | 117° |
| 2026-05-05 16:36 | 26.89930 | 34.57391 | 34947 ft | 555 kts | 117° |
| 2026-05-05 16:37 | 26.87027 | 34.65405 | 34947 ft | 556 kts | 117° |
| 2026-05-05 16:37 | 26.84119 | 34.73421 | 34944 ft | 556 kts | 117° |
| 2026-05-05 16:38 | 26.81199 | 34.81453 | 34938 ft | 557 kts | 118° |
| 2026-05-05 16:38 | 26.78273 | 34.89490 | 34942 ft | 558 kts | 118° |
| 2026-05-05 16:39 | 26.75812 | 34.96230 | 34942 ft | 558 kts | 118° |
| 2026-05-05 16:39 | 26.72937 | 35.04092 | 34929 ft | 558 kts | 118° |
| 2026-05-05 16:40 | 26.69999 | 35.12114 | 34942 ft | 558 kts | 118° |
| 2026-05-05 16:40 | 26.67052 | 35.20147 | 34937 ft | 558 kts | 118° |
| 2026-05-05 16:41 | 26.64105 | 35.28164 | 34925 ft | 557 kts | 118° |
| 2026-05-05 16:41 | 26.61154 | 35.36178 | 34932 ft | 557 kts | 118° |
| 2026-05-05 16:42 | 26.58207 | 35.44165 | 34938 ft | 556 kts | 118° |
| 2026-05-05 16:42 | 26.55239 | 35.52147 | 34926 ft | 556 kts | 119° |
| 2026-05-05 16:43 | 26.52205 | 35.60086 | 34931 ft | 556 kts | 120° |
| 2026-05-05 16:43 | 26.49171 | 35.67969 | 34932 ft | 556 kts | 120° |
| 2026-05-05 16:44 | 26.46107 | 35.75953 | 34914 ft | 556 kts | 120° |
| 2026-05-05 16:44 | 26.43081 | 35.83843 | 34921 ft | 556 kts | 120° |
| 2026-05-05 16:45 | 26.40029 | 35.91786 | 34921 ft | 556 kts | 120° |
| 2026-05-05 16:45 | 26.36973 | 35.99720 | 34924 ft | 557 kts | 120° |
| 2026-05-05 16:46 | 26.33961 | 36.07522 | 34923 ft | 557 kts | 120° |
| 2026-05-05 16:46 | 26.30893 | 36.15458 | 34921 ft | 557 kts | 120° |
| 2026-05-05 16:47 | 26.27819 | 36.23391 | 34917 ft | 558 kts | 120° |
| 2026-05-05 16:47 | 26.24741 | 36.31322 | 34904 ft | 557 kts | 120° |
| 2026-05-05 16:48 | 26.21680 | 36.39193 | 34911 ft | 558 kts | 120° |
| 2026-05-05 16:48 | 26.18590 | 36.47125 | 34914 ft | 558 kts | 121° |
| 2026-05-05 16:49 | 26.15116 | 36.54770 | 34925 ft | 551 kts | 126° |
| 2026-05-05 16:49 | 26.11380 | 36.62222 | 34912 ft | 551 kts | 127° |
| 2026-05-05 16:50 | 26.07646 | 36.69683 | 34930 ft | 552 kts | 126° |
| 2026-05-05 16:50 | 26.03943 | 36.77162 | 34908 ft | 553 kts | 126° |
| 2026-05-05 16:51 | 26.00243 | 36.84655 | 34920 ft | 553 kts | 126° |
| 2026-05-05 16:51 | 25.96535 | 36.92143 | 34922 ft | 553 kts | 126° |
| 2026-05-05 16:52 | 25.92819 | 36.99628 | 34907 ft | 553 kts | 126° |
| 2026-05-05 16:52 | 25.89162 | 37.06984 | 34912 ft | 553 kts | 126° |
| 2026-05-05 16:53 | 25.85440 | 37.14457 | 34919 ft | 553 kts | 126° |
| 2026-05-05 16:53 | 25.81715 | 37.21925 | 34922 ft | 553 kts | 127° |
| 2026-05-05 16:54 | 25.77986 | 37.29399 | 34915 ft | 553 kts | 127° |
| 2026-05-05 16:54 | 25.74274 | 37.36855 | 34934 ft | 552 kts | 126° |
| 2026-05-05 16:55 | 25.70583 | 37.44268 | 34938 ft | 552 kts | 127° |
| 2026-05-05 16:55 | 25.66864 | 37.51713 | 34953 ft | 552 kts | 127° |
| 2026-05-05 16:56 | 25.63134 | 37.59169 | 34948 ft | 554 kts | 127° |
| 2026-05-05 16:56 | 25.59395 | 37.66642 | 34949 ft | 555 kts | 127° |
| 2026-05-05 16:57 | 25.55630 | 37.74130 | 34931 ft | 557 kts | 127° |
| 2026-05-05 16:57 | 25.51854 | 37.81644 | 34920 ft | 558 kts | 127° |
| 2026-05-05 16:58 | 25.48073 | 37.89157 | 34926 ft | 559 kts | 127° |
| 2026-05-05 16:58 | 25.44287 | 37.96669 | 34906 ft | 559 kts | 127° |
| 2026-05-05 16:59 | 25.40558 | 38.04059 | 34903 ft | 559 kts | 127° |
| 2026-05-05 16:59 | 25.36761 | 38.11562 | 34893 ft | 559 kts | 127° |
| 2026-05-05 17:00 | 25.32965 | 38.19044 | 34910 ft | 557 kts | 127° |
| 2026-05-05 17:00 | 25.29178 | 38.26508 | 34896 ft | 556 kts | 127° |
| 2026-05-05 17:01 | 25.25392 | 38.33958 | 34902 ft | 556 kts | 127° |
| 2026-05-05 17:01 | 25.21602 | 38.41402 | 34917 ft | 556 kts | 127° |
| 2026-05-05 17:02 | 25.17820 | 38.48823 | 34914 ft | 557 kts | 128° |
| 2026-05-05 17:02 | 25.14010 | 38.56266 | 34917 ft | 557 kts | 128° |
| 2026-05-05 17:03 | 25.10197 | 38.63703 | 34885 ft | 556 kts | 127° |
| 2026-05-05 17:03 | 25.06396 | 38.71111 | 34902 ft | 555 kts | 127° |
| 2026-05-05 17:04 | 25.02598 | 38.78504 | 34900 ft | 553 kts | 127° |
| 2026-05-05 17:04 | 24.98810 | 38.85858 | 34915 ft | 552 kts | 128° |
| 2026-05-05 17:05 | 24.95021 | 38.93208 | 34911 ft | 551 kts | 128° |
| 2026-05-05 17:05 | 24.91284 | 39.00430 | 34923 ft | 551 kts | 128° |
| 2026-05-05 17:06 | 24.87480 | 39.07768 | 34926 ft | 552 kts | 128° |
| 2026-05-05 17:06 | 24.83670 | 39.15116 | 34912 ft | 553 kts | 128° |
| 2026-05-05 17:07 | 24.79848 | 39.22476 | 34924 ft | 553 kts | 128° |
| 2026-05-05 17:07 | 24.76019 | 39.29834 | 34929 ft | 554 kts | 128° |
| 2026-05-05 17:08 | 24.72179 | 39.37198 | 34917 ft | 555 kts | 128° |
| 2026-05-05 17:08 | 24.68335 | 39.44569 | 34922 ft | 556 kts | 128° |
| 2026-05-05 17:09 | 24.64507 | 39.51895 | 34951 ft | 556 kts | 128° |
| 2026-05-05 17:09 | 24.60662 | 39.59249 | 34909 ft | 551 kts | 127° |
| 2026-05-05 17:10 | 24.56946 | 39.66626 | 34938 ft | 558 kts | 121° |
| 2026-05-05 17:10 | 24.54418 | 39.74807 | 34940 ft | 573 kts | 109° |
| 2026-05-05 17:11 | 24.53301 | 39.83561 | 34927 ft | 582 kts | 100° |
| 2026-05-05 17:11 | 24.52577 | 39.92437 | 34941 ft | 582 kts | 100° |
| 2026-05-05 17:12 | 24.51830 | 40.01014 | 34923 ft | 566 kts | 101° |
| 2026-05-05 17:12 | 24.51000 | 40.09582 | 34918 ft | 563 kts | 101° |
| 2026-05-05 17:13 | 24.50151 | 40.18083 | 34930 ft | 563 kts | 101° |
| 2026-05-05 17:13 | 24.49301 | 40.26638 | 34919 ft | 564 kts | 101° |
| 2026-05-05 17:14 | 24.48455 | 40.35196 | 34931 ft | 564 kts | 101° |
| 2026-05-05 17:14 | 24.47604 | 40.43758 | 34930 ft | 564 kts | 101° |
| 2026-05-05 17:15 | 24.46746 | 40.52334 | 34918 ft | 564 kts | 101° |
| 2026-05-05 17:15 | 24.45884 | 40.60895 | 34931 ft | 564 kts | 101° |
| 2026-05-05 17:16 | 24.45014 | 40.69458 | 34932 ft | 564 kts | 101° |
| 2026-05-05 17:16 | 24.44140 | 40.78001 | 34939 ft | 564 kts | 101° |
| 2026-05-05 17:17 | 24.43258 | 40.86572 | 34934 ft | 565 kts | 102° |
| 2026-05-05 17:17 | 24.42374 | 40.95137 | 34923 ft | 565 kts | 102° |
| 2026-05-05 17:18 | 24.41499 | 41.03562 | 34937 ft | 564 kts | 102° |
| 2026-05-05 17:18 | 24.40606 | 41.12108 | 34940 ft | 564 kts | 102° |
| 2026-05-05 17:19 | 24.39714 | 41.20607 | 34938 ft | 564 kts | 102° |
| 2026-05-05 17:19 | 24.38814 | 41.29145 | 34944 ft | 563 kts | 102° |
| 2026-05-05 17:20 | 24.37909 | 41.37678 | 34943 ft | 563 kts | 102° |
| 2026-05-05 17:20 | 24.37001 | 41.46202 | 34954 ft | 562 kts | 102° |
| 2026-05-05 17:21 | 24.36089 | 41.54709 | 34940 ft | 562 kts | 102° |
| 2026-05-05 17:22 | 24.34713 | 41.67465 | 34944 ft | 561 kts | 102° |
| 2026-05-05 17:22 | 24.33790 | 41.75964 | 34945 ft | 560 kts | 102° |
| 2026-05-05 17:23 | 24.32645 | 41.84379 | 34955 ft | 555 kts | 109° |
| 2026-05-05 17:23 | 24.30915 | 41.91175 | 34955 ft | 551 kts | 113° |
| 2026-05-05 17:24 | 24.28720 | 41.99184 | 34927 ft | 552 kts | 112° |
| 2026-05-05 17:24 | 24.26582 | 42.07127 | 34940 ft | 552 kts | 112° |
| 2026-05-05 17:25 | 24.24444 | 42.15217 | 34946 ft | 553 kts | 112° |
| 2026-05-05 17:25 | 24.22312 | 42.23301 | 34932 ft | 552 kts | 112° |
| 2026-05-05 17:26 | 24.20173 | 42.31377 | 34939 ft | 552 kts | 112° |
| 2026-05-05 17:26 | 24.18027 | 42.39451 | 34943 ft | 551 kts | 112° |
| 2026-05-05 17:27 | 24.15880 | 42.47503 | 34946 ft | 550 kts | 112° |
| 2026-05-05 17:27 | 24.13732 | 42.55543 | 34944 ft | 550 kts | 112° |
| 2026-05-05 17:28 | 24.11581 | 42.63577 | 34935 ft | 550 kts | 112° |
| 2026-05-05 17:28 | 24.09425 | 42.71609 | 34949 ft | 550 kts | 112° |
| 2026-05-05 17:29 | 24.07265 | 42.79644 | 34951 ft | 551 kts | 112° |
| 2026-05-05 17:29 | 24.05153 | 42.87697 | 34952 ft | 553 kts | 109° |
| 2026-05-05 17:30 | 24.03919 | 42.96081 | 35143 ft | 561 kts | 101° |
| 2026-05-05 17:30 | 24.03517 | 43.00213 | 35436 ft | 560 kts | 100° |
| 2026-05-05 17:30 | 24.03120 | 43.04410 | 35759 ft | 557 kts | 100° |
| 2026-05-05 17:30 | 24.02720 | 43.08571 | 36077 ft | 555 kts | 101° |
| 2026-05-05 17:31 | 24.02298 | 43.12814 | 36367 ft | 554 kts | 101° |
| 2026-05-05 17:31 | 24.01868 | 43.17001 | 36606 ft | 554 kts | 101° |
| 2026-05-05 17:31 | 24.01432 | 43.21139 | 36831 ft | 554 kts | 101° |
| 2026-05-05 17:32 | 24.00533 | 43.29527 | 36942 ft | 555 kts | 101° |
| 2026-05-05 17:32 | 23.99632 | 43.37896 | 36958 ft | 553 kts | 101° |
| 2026-05-05 17:33 | 23.98735 | 43.46230 | 36960 ft | 551 kts | 101° |
| 2026-05-05 17:33 | 23.97839 | 43.54533 | 36971 ft | 550 kts | 101° |
| 2026-05-05 17:34 | 23.96935 | 43.62851 | 36962 ft | 550 kts | 102° |
| 2026-05-05 17:34 | 23.96027 | 43.71157 | 36955 ft | 550 kts | 102° |
| 2026-05-05 17:35 | 23.95115 | 43.79466 | 36949 ft | 551 kts | 102° |
| 2026-05-05 17:35 | 23.94198 | 43.87780 | 36938 ft | 551 kts | 101° |
| 2026-05-05 17:36 | 23.93277 | 43.96096 | 36944 ft | 551 kts | 101° |
| 2026-05-05 17:36 | 23.92366 | 44.04278 | 36928 ft | 551 kts | 101° |
| 2026-05-05 17:37 | 23.91435 | 44.12591 | 36934 ft | 551 kts | 101° |
| 2026-05-05 17:37 | 23.90501 | 44.20899 | 36933 ft | 551 kts | 102° |
| 2026-05-05 17:38 | 23.89562 | 44.29205 | 36936 ft | 550 kts | 101° |
| 2026-05-05 17:38 | 23.88620 | 44.37501 | 36941 ft | 550 kts | 101° |
| 2026-05-05 17:39 | 23.87679 | 44.45743 | 36944 ft | 549 kts | 102° |
| 2026-05-05 17:39 | 23.86729 | 44.54026 | 36930 ft | 549 kts | 102° |
| 2026-05-05 17:40 | 23.85775 | 44.62303 | 36924 ft | 549 kts | 101° |
| 2026-05-05 17:40 | 23.84818 | 44.70566 | 36928 ft | 548 kts | 101° |
| 2026-05-05 17:41 | 23.83858 | 44.78818 | 36927 ft | 547 kts | 101° |
| 2026-05-05 17:41 | 23.82895 | 44.87063 | 36920 ft | 547 kts | 102° |
| 2026-05-05 17:42 | 23.81925 | 44.95313 | 36922 ft | 547 kts | 102° |
| 2026-05-05 17:42 | 23.80970 | 45.03406 | 36909 ft | 546 kts | 102° |
| 2026-05-05 17:43 | 23.79994 | 45.11643 | 36905 ft | 546 kts | 102° |
| 2026-05-05 17:43 | 23.79015 | 45.19867 | 36905 ft | 546 kts | 102° |
| 2026-05-05 17:44 | 23.78032 | 45.28084 | 36899 ft | 546 kts | 102° |
| 2026-05-05 17:44 | 23.77051 | 45.36248 | 36888 ft | 545 kts | 102° |
| 2026-05-05 17:45 | 23.76060 | 45.44456 | 36883 ft | 545 kts | 102° |
| 2026-05-05 17:45 | 23.75065 | 45.52664 | 36887 ft | 545 kts | 102° |
| 2026-05-05 17:46 | 23.74066 | 45.60862 | 36867 ft | 545 kts | 102° |
| 2026-05-05 17:46 | 23.73064 | 45.69050 | 36874 ft | 544 kts | 102° |
| 2026-05-05 17:47 | 23.72058 | 45.77234 | 36857 ft | 544 kts | 101° |
| 2026-05-05 17:47 | 23.71048 | 45.85420 | 36863 ft | 543 kts | 101° |
| 2026-05-05 17:48 | 23.70035 | 45.93589 | 36867 ft | 543 kts | 102° |
| 2026-05-05 17:48 | 23.69035 | 46.01615 | 36862 ft | 543 kts | 102° |
| 2026-05-05 17:49 | 23.68012 | 46.09794 | 36870 ft | 543 kts | 102° |
| 2026-05-05 17:49 | 23.66991 | 46.17919 | 36878 ft | 544 kts | 102° |
| 2026-05-05 17:50 | 23.65959 | 46.26098 | 36879 ft | 544 kts | 102° |
| 2026-05-05 17:50 | 23.64922 | 46.34280 | 36865 ft | 545 kts | 102° |
| 2026-05-05 17:51 | 23.63881 | 46.42463 | 36879 ft | 545 kts | 102° |
| 2026-05-05 17:51 | 23.62836 | 46.50647 | 36877 ft | 545 kts | 102° |
| 2026-05-05 17:52 | 23.61784 | 46.58843 | 36864 ft | 545 kts | 102° |
| 2026-05-05 17:52 | 23.60728 | 46.67034 | 36860 ft | 545 kts | 102° |
| 2026-05-05 17:53 | 23.59667 | 46.75234 | 36849 ft | 545 kts | 102° |
| 2026-05-05 17:53 | 23.58603 | 46.83422 | 36838 ft | 544 kts | 102° |
| 2026-05-05 17:54 | 23.57538 | 46.91582 | 36840 ft | 543 kts | 102° |
| 2026-05-05 17:54 | 23.56473 | 46.99715 | 36849 ft | 542 kts | 102° |
| 2026-05-05 17:55 | 23.55419 | 47.07715 | 36849 ft | 542 kts | 102° |
| 2026-05-05 17:55 | 23.54344 | 47.15850 | 36830 ft | 542 kts | 102° |
| 2026-05-05 17:56 | 23.53266 | 47.23972 | 36824 ft | 541 kts | 102° |
| 2026-05-05 17:56 | 23.52188 | 47.32072 | 36829 ft | 540 kts | 102° |
| 2026-05-05 17:57 | 23.51103 | 47.40180 | 36816 ft | 540 kts | 102° |
| 2026-05-05 17:57 | 23.50017 | 47.48270 | 36819 ft | 539 kts | 102° |
| 2026-05-05 17:58 | 23.48934 | 47.56298 | 36828 ft | 539 kts | 102° |
| 2026-05-05 17:58 | 23.47840 | 47.64379 | 36819 ft | 539 kts | 102° |
| 2026-05-05 17:59 | 23.46742 | 47.72458 | 36822 ft | 539 kts | 102° |
| 2026-05-05 17:59 | 23.45641 | 47.80532 | 36797 ft | 538 kts | 101° |
| 2026-05-05 18:00 | 23.44537 | 47.88596 | 36813 ft | 537 kts | 102° |
| 2026-05-05 18:00 | 23.43431 | 47.96637 | 36803 ft | 536 kts | 102° |
| 2026-05-05 18:01 | 23.42341 | 48.04533 | 36801 ft | 536 kts | 102° |
| 2026-05-05 18:01 | 23.41228 | 48.12563 | 36796 ft | 536 kts | 102° |
| 2026-05-05 18:02 | 23.40113 | 48.20581 | 36794 ft | 536 kts | 102° |
| 2026-05-05 18:02 | 23.38995 | 48.28594 | 36782 ft | 535 kts | 101° |
| 2026-05-05 18:03 | 23.38038 | 48.36621 | 36784 ft | 536 kts | 96° |
| 2026-05-05 18:03 | 23.37717 | 48.44724 | 36790 ft | 536 kts | 94° |
| 2026-05-05 18:04 | 23.37454 | 48.52828 | 36783 ft | 535 kts | 95° |
| 2026-05-05 18:04 | 23.37146 | 48.60931 | 36781 ft | 535 kts | 95° |
| 2026-05-05 18:05 | 23.36810 | 48.68965 | 36777 ft | 535 kts | 95° |
| 2026-05-05 18:05 | 23.36466 | 48.77052 | 36779 ft | 535 kts | 95° |
| 2026-05-05 18:06 | 23.36121 | 48.85139 | 36775 ft | 535 kts | 95° |
| 2026-05-05 18:06 | 23.35832 | 48.91871 | 36780 ft | 534 kts | 95° |
| 2026-05-05 18:07 | 23.35480 | 48.99995 | 36772 ft | 534 kts | 95° |
| 2026-05-05 18:07 | 23.35046 | 49.07921 | 36772 ft | 532 kts | 99° |
| 2026-05-05 18:08 | 23.33954 | 49.15863 | 36768 ft | 530 kts | 102° |
| 2026-05-05 18:08 | 23.32761 | 49.23728 | 36771 ft | 530 kts | 102° |
| 2026-05-05 18:09 | 23.31583 | 49.31639 | 36774 ft | 530 kts | 102° |
| 2026-05-05 18:09 | 23.30431 | 49.39560 | 36774 ft | 530 kts | 101° |
| 2026-05-05 18:10 | 23.29285 | 49.47488 | 36763 ft | 530 kts | 101° |
| 2026-05-05 18:10 | 23.28136 | 49.55407 | 36777 ft | 530 kts | 101° |
| 2026-05-05 18:11 | 23.26979 | 49.63325 | 36777 ft | 530 kts | 101° |
| 2026-05-05 18:11 | 23.25817 | 49.71250 | 36780 ft | 530 kts | 101° |
| 2026-05-05 18:12 | 23.24651 | 49.79166 | 36779 ft | 530 kts | 101° |
| 2026-05-05 18:12 | 23.23481 | 49.87086 | 36780 ft | 531 kts | 101° |
| 2026-05-05 18:13 | 23.22314 | 49.94954 | 36780 ft | 531 kts | 102° |
| 2026-05-05 18:13 | 23.21155 | 50.02746 | 36773 ft | 530 kts | 101° |
| 2026-05-05 18:14 | 23.19975 | 50.10649 | 36782 ft | 530 kts | 101° |
| 2026-05-05 18:14 | 23.18790 | 50.18562 | 36784 ft | 529 kts | 101° |
| 2026-05-05 18:15 | 23.17603 | 50.26459 | 36784 ft | 529 kts | 101° |
| 2026-05-05 18:15 | 23.16412 | 50.34348 | 36791 ft | 529 kts | 101° |
| 2026-05-05 18:16 | 23.15218 | 50.42235 | 36800 ft | 529 kts | 101° |
| 2026-05-05 18:16 | 23.14020 | 50.50122 | 36787 ft | 529 kts | 102° |
| 2026-05-05 18:17 | 23.12816 | 50.58016 | 36798 ft | 529 kts | 101° |
| 2026-05-05 18:17 | 23.11611 | 50.65893 | 36791 ft | 528 kts | 101° |
| 2026-05-05 18:18 | 23.10411 | 50.73710 | 36796 ft | 528 kts | 102° |
| 2026-05-05 18:18 | 23.09200 | 50.81575 | 36795 ft | 528 kts | 102° |
| 2026-05-05 18:19 | 23.07987 | 50.89426 | 36792 ft | 528 kts | 102° |
| 2026-05-05 18:19 | 23.06767 | 50.97294 | 36796 ft | 528 kts | 102° |
| 2026-05-05 18:20 | 23.05564 | 51.05025 | 36783 ft | 528 kts | 102° |
| 2026-05-05 18:20 | 23.04335 | 51.12894 | 36791 ft | 528 kts | 102° |
| 2026-05-05 18:21 | 23.03107 | 51.20736 | 36793 ft | 527 kts | 102° |
| 2026-05-05 18:21 | 23.01874 | 51.28586 | 36796 ft | 526 kts | 102° |
| 2026-05-05 18:22 | 23.00639 | 51.36417 | 36794 ft | 526 kts | 102° |
| 2026-05-05 18:22 | 22.99402 | 51.44238 | 36798 ft | 526 kts | 102° |
| 2026-05-05 18:23 | 22.98160 | 51.52062 | 36802 ft | 526 kts | 102° |
| 2026-05-05 18:23 | 22.96914 | 51.59886 | 36786 ft | 526 kts | 102° |
| 2026-05-05 18:24 | 22.95664 | 51.67710 | 36795 ft | 526 kts | 102° |
| 2026-05-05 18:24 | 22.94411 | 51.75528 | 36795 ft | 527 kts | 102° |
| 2026-05-05 18:25 | 22.93159 | 51.83313 | 36793 ft | 527 kts | 102° |
| 2026-05-05 18:25 | 22.91896 | 51.91148 | 36799 ft | 527 kts | 102° |
| 2026-05-05 18:26 | 22.90627 | 51.98987 | 36799 ft | 528 kts | 102° |
| 2026-05-05 18:26 | 22.89375 | 52.06700 | 36796 ft | 528 kts | 102° |
| 2026-05-05 18:27 | 22.88098 | 52.14544 | 36797 ft | 528 kts | 102° |
| 2026-05-05 18:27 | 22.86816 | 52.22389 | 36797 ft | 528 kts | 102° |
| 2026-05-05 18:28 | 22.84888 | 52.34147 | 36791 ft | 527 kts | 102° |
| 2026-05-05 18:28 | 22.83608 | 52.41927 | 36794 ft | 527 kts | 102° |
| 2026-05-05 18:29 | 22.82425 | 52.49766 | 36799 ft | 528 kts | 98° |
| 2026-05-05 18:29 | 22.82111 | 52.57721 | 36802 ft | 528 kts | 92° |
| 2026-05-05 18:30 | 22.81979 | 52.65679 | 36792 ft | 529 kts | 92° |
| 2026-05-05 18:30 | 22.81813 | 52.73643 | 36795 ft | 528 kts | 93° |
| 2026-05-05 18:31 | 22.81607 | 52.81607 | 36796 ft | 529 kts | 93° |
| 2026-05-05 18:31 | 22.81386 | 52.89574 | 36791 ft | 529 kts | 93° |
| 2026-05-05 18:32 | 22.81163 | 52.97553 | 36792 ft | 529 kts | 93° |
| 2026-05-05 18:32 | 22.80942 | 53.05395 | 36789 ft | 529 kts | 93° |
| 2026-05-05 18:33 | 22.80715 | 53.13351 | 36791 ft | 529 kts | 93° |
| 2026-05-05 18:33 | 22.80483 | 53.21322 | 36792 ft | 528 kts | 93° |
| 2026-05-05 18:34 | 22.80248 | 53.29281 | 36787 ft | 528 kts | 93° |
| 2026-05-05 18:34 | 22.80008 | 53.37241 | 36788 ft | 528 kts | 93° |
| 2026-05-05 18:35 | 22.79767 | 53.45157 | 36788 ft | 529 kts | 93° |
| 2026-05-05 18:35 | 22.79519 | 53.53110 | 36785 ft | 529 kts | 93° |
| 2026-05-05 18:36 | 22.79268 | 53.61073 | 36788 ft | 529 kts | 93° |
| 2026-05-05 18:36 | 22.79013 | 53.69036 | 36786 ft | 529 kts | 94° |
| 2026-05-05 18:37 | 22.78753 | 53.77008 | 36780 ft | 529 kts | 94° |
| 2026-05-05 18:37 | 22.78490 | 53.84975 | 36788 ft | 529 kts | 94° |
| 2026-05-05 18:38 | 22.78223 | 53.92947 | 36784 ft | 529 kts | 94° |
| 2026-05-05 18:38 | 22.78390 | 54.00781 | 36780 ft | 530 kts | 85° |
| 2026-05-05 18:39 | 22.79733 | 54.08629 | 36787 ft | 530 kts | 78° |
| 2026-05-05 18:39 | 22.81384 | 54.16368 | 36780 ft | 530 kts | 77° |
| 2026-05-05 18:40 | 22.83017 | 54.24156 | 36781 ft | 530 kts | 78° |
| 2026-05-05 18:40 | 22.84604 | 54.31954 | 36776 ft | 530 kts | 78° |
| 2026-05-05 18:41 | 22.86177 | 54.39772 | 36782 ft | 529 kts | 78° |
| 2026-05-05 18:41 | 22.87744 | 54.47573 | 36777 ft | 529 kts | 78° |
| 2026-05-05 18:42 | 22.89311 | 54.55377 | 36777 ft | 530 kts | 78° |
| 2026-05-05 18:42 | 22.90875 | 54.63185 | 36779 ft | 530 kts | 78° |
| 2026-05-05 18:43 | 22.92427 | 54.70952 | 36776 ft | 530 kts | 78° |
| 2026-05-05 18:43 | 22.93987 | 54.78781 | 36773 ft | 530 kts | 78° |
| 2026-05-05 18:44 | 22.95542 | 54.86608 | 36773 ft | 531 kts | 78° |
| 2026-05-05 18:44 | 22.97092 | 54.94433 | 36773 ft | 531 kts | 78° |
| 2026-05-05 18:45 | 22.98618 | 55.02155 | 36774 ft | 531 kts | 78° |
| 2026-05-05 18:45 | 23.00162 | 55.09990 | 36782 ft | 531 kts | 78° |
| 2026-05-05 18:46 | 23.01932 | 55.17755 | 36770 ft | 529 kts | 66° |
| 2026-05-05 18:46 | 23.03790 | 55.21179 | 36788 ft | 526 kts | 49° |
| 2026-05-05 18:46 | 23.06387 | 55.23948 | 36803 ft | 523 kts | 36° |
| 2026-05-05 18:47 | 23.09449 | 55.26072 | 36784 ft | 520 kts | 22° |
| 2026-05-05 18:47 | 23.12834 | 55.27356 | 36799 ft | 513 kts | 11° |
| 2026-05-05 18:47 | 23.19782 | 55.29232 | 36795 ft | 516 kts | 11° |
| 2026-05-05 18:48 | 23.26761 | 55.31174 | 36797 ft | 519 kts | 12° |
| 2026-05-05 18:48 | 23.33752 | 55.33225 | 36793 ft | 521 kts | 12° |
| 2026-05-05 18:49 | 23.40753 | 55.35305 | 36791 ft | 522 kts | 12° |
| 2026-05-05 18:49 | 23.47758 | 55.37377 | 36796 ft | 521 kts | 12° |
| 2026-05-05 18:50 | 23.54708 | 55.39431 | 36795 ft | 521 kts | 12° |
| 2026-05-05 18:50 | 23.61696 | 55.41499 | 36795 ft | 520 kts | 12° |
| 2026-05-05 18:51 | 23.68678 | 55.43567 | 36797 ft | 519 kts | 12° |
| 2026-05-05 18:51 | 23.75639 | 55.45633 | 36810 ft | 518 kts | 12° |
| 2026-05-05 18:52 | 23.82608 | 55.47702 | 36362 ft | 524 kts | 12° |
| 2026-05-05 18:52 | 23.84953 | 55.48397 | 35914 ft | 527 kts | 12° |
| 2026-05-05 18:52 | 23.88474 | 55.49445 | 35369 ft | 521 kts | 12° |
| 2026-05-05 18:53 | 23.91959 | 55.50481 | 34801 ft | 516 kts | 12° |
| 2026-05-05 18:53 | 23.95411 | 55.51513 | 34096 ft | 516 kts | 13° |
| 2026-05-05 18:53 | 23.98804 | 55.52868 | 33154 ft | 521 kts | 21° |
| 2026-05-05 18:53 | 24.02011 | 55.54719 | 32207 ft | 526 kts | 28° |
| 2026-05-05 18:54 | 24.05037 | 55.56982 | 31302 ft | 529 kts | 36° |
| 2026-05-05 18:54 | 24.07809 | 55.59646 | 30511 ft | 528 kts | 40° |
| 2026-05-05 18:54 | 24.10481 | 55.62367 | 29976 ft | 521 kts | 40° |
| 2026-05-05 18:54 | 24.13099 | 55.65052 | 29422 ft | 513 kts | 40° |
| 2026-05-05 18:55 | 24.15695 | 55.67692 | 28793 ft | 506 kts | 40° |
| 2026-05-05 18:55 | 24.18274 | 55.70283 | 28168 ft | 500 kts | 40° |
| 2026-05-05 18:55 | 24.20836 | 55.72834 | 27563 ft | 495 kts | 40° |
| 2026-05-05 18:55 | 24.23375 | 55.75352 | 26959 ft | 490 kts | 40° |
| 2026-05-05 18:56 | 24.25893 | 55.77849 | 26373 ft | 484 kts | 40° |
| 2026-05-05 18:56 | 24.28379 | 55.80316 | 25823 ft | 479 kts | 40° |
| 2026-05-05 18:56 | 24.30836 | 55.82759 | 25289 ft | 474 kts | 40° |
| 2026-05-05 18:56 | 24.33268 | 55.85179 | 24739 ft | 470 kts | 40° |
| 2026-05-05 18:57 | 24.35677 | 55.87578 | 24203 ft | 466 kts | 40° |
| 2026-05-05 18:57 | 24.38060 | 55.89953 | 23687 ft | 462 kts | 40° |
| 2026-05-05 18:57 | 24.40434 | 55.92318 | 23116 ft | 458 kts | 40° |
| 2026-05-05 18:57 | 24.42783 | 55.94661 | 22546 ft | 453 kts | 40° |
| 2026-05-05 18:58 | 24.45101 | 55.96973 | 22004 ft | 448 kts | 40° |
| 2026-05-05 18:58 | 24.47387 | 55.99255 | 21463 ft | 443 kts | 40° |
| 2026-05-05 18:58 | 24.49582 | 56.01447 | 20941 ft | 439 kts | 40° |
| 2026-05-05 18:58 | 24.51830 | 56.03693 | 20406 ft | 435 kts | 41° |
| 2026-05-05 18:59 | 24.54057 | 56.05918 | 19887 ft | 431 kts | 41° |
| 2026-05-05 18:59 | 24.56265 | 56.08132 | 19374 ft | 427 kts | 41° |
| 2026-05-05 18:59 | 24.58502 | 56.10230 | 18815 ft | 420 kts | 34° |
| 2026-05-05 18:59 | 24.61028 | 56.11815 | 18263 ft | 417 kts | 22° |
| 2026-05-05 19:00 | 24.63702 | 56.12870 | 17719 ft | 412 kts | 13° |
| 2026-05-05 19:00 | 24.66502 | 56.13426 | 17175 ft | 407 kts | 7° |
| 2026-05-05 19:00 | 24.69294 | 56.13873 | 16598 ft | 404 kts | 8° |
| 2026-05-05 19:00 | 24.72070 | 56.14354 | 16002 ft | 403 kts | 8° |
| 2026-05-05 19:01 | 24.74823 | 56.14819 | 15414 ft | 394 kts | 4° |
| 2026-05-05 19:01 | 24.77556 | 56.14566 | 14662 ft | 397 kts | 343° |
| 2026-05-05 19:01 | 24.80033 | 56.13276 | 14114 ft | 394 kts | 326° |
| 2026-05-05 19:01 | 24.82096 | 56.11339 | 13619 ft | 391 kts | 310° |
| 2026-05-05 19:02 | 24.83682 | 56.08941 | 13090 ft | 383 kts | 303° |
| 2026-05-05 19:02 | 24.85112 | 56.06534 | 13015 ft | 368 kts | 302° |
| 2026-05-05 19:02 | 24.86480 | 56.04209 | 12922 ft | 355 kts | 302° |
| 2026-05-05 19:02 | 24.87807 | 56.01971 | 12837 ft | 343 kts | 303° |
| 2026-05-05 19:03 | 24.89097 | 55.99819 | 12743 ft | 331 kts | 303° |
| 2026-05-05 19:03 | 24.90347 | 55.97749 | 12673 ft | 319 kts | 303° |
| 2026-05-05 19:03 | 24.91558 | 55.95753 | 12573 ft | 308 kts | 303° |
| 2026-05-05 19:03 | 24.92733 | 55.93821 | 12432 ft | 299 kts | 303° |
| 2026-05-05 19:04 | 24.93881 | 55.91936 | 12204 ft | 294 kts | 303° |
| 2026-05-05 19:04 | 24.95015 | 55.90072 | 11877 ft | 292 kts | 303° |
| 2026-05-05 19:04 | 24.96147 | 55.88213 | 11532 ft | 292 kts | 303° |
| 2026-05-05 19:04 | 24.97271 | 55.86367 | 11212 ft | 290 kts | 303° |
| 2026-05-05 19:05 | 24.98389 | 55.84530 | 10915 ft | 287 kts | 303° |
| 2026-05-05 19:05 | 24.99500 | 55.82703 | 10604 ft | 284 kts | 303° |
| 2026-05-05 19:05 | 25.00543 | 55.80919 | 10175 ft | 272 kts | 301° |
| 2026-05-05 19:05 | 25.01518 | 55.79161 | 10047 ft | 272 kts | 300° |
| 2026-05-05 19:06 | 25.02509 | 55.77370 | 9947 ft | 278 kts | 301° |
| 2026-05-05 19:06 | 25.03514 | 55.75559 | 9554 ft | 275 kts | 301° |
| 2026-05-05 19:06 | 25.04507 | 55.73775 | 8905 ft | 272 kts | 301° |
| 2026-05-05 19:06 | 25.05484 | 55.72032 | 8462 ft | 259 kts | 302° |
| 2026-05-05 19:07 | 25.06415 | 55.70432 | 8256 ft | 238 kts | 302° |
| 2026-05-05 19:07 | 25.07279 | 55.68924 | 7791 ft | 231 kts | 301° |
| 2026-05-05 19:07 | 25.08132 | 55.67402 | 7064 ft | 236 kts | 301° |
| 2026-05-05 19:07 | 25.08998 | 55.65843 | 6419 ft | 241 kts | 302° |
| 2026-05-05 19:08 | 25.09890 | 55.64237 | 5632 ft | 251 kts | 302° |
| 2026-05-05 19:08 | 25.10822 | 55.62557 | 4811 ft | 260 kts | 302° |
| 2026-05-05 19:08 | 25.11771 | 55.60846 | 4152 ft | 261 kts | 302° |
| 2026-05-05 19:08 | 25.12687 | 55.59191 | 3839 ft | 244 kts | 302° |
| 2026-05-05 19:09 | 25.13565 | 55.57607 | 3540 ft | 240 kts | 302° |
| 2026-05-05 19:09 | 25.14433 | 55.56041 | 3245 ft | 239 kts | 302° |
| 2026-05-05 19:09 | 25.15297 | 55.54481 | 2948 ft | 237 kts | 302° |
| 2026-05-05 19:09 | 25.16153 | 55.52937 | 2640 ft | 232 kts | 302° |
| 2026-05-05 19:10 | 25.16965 | 55.51470 | 2370 ft | 213 kts | 302° |
| 2026-05-05 19:10 | 25.17707 | 55.50128 | 2095 ft | 197 kts | 302° |
| 2026-05-05 19:10 | 25.18389 | 55.48899 | 1891 ft | 178 kts | 302° |
| 2026-05-05 19:10 | 25.19011 | 55.47773 | 1655 ft | 167 kts | 303° |
| 2026-05-05 19:11 | 25.19617 | 55.46682 | 1519 ft | 168 kts | 303° |
| 2026-05-05 19:11 | 25.20217 | 55.45594 | 1289 ft | 165 kts | 303° |
| 2026-05-05 19:11 | 25.20794 | 55.44529 | 1040 ft | 159 kts | 302° |
| 2026-05-05 19:11 | 25.21369 | 55.43515 | 885 ft | 154 kts | 303° |
| 2026-05-05 19:12 | 25.21906 | 55.42509 | 681 ft | 154 kts | 303° |
| 2026-05-05 19:12 | 25.22472 | 55.41495 | 459 ft | 150 kts | 302° |
| 2026-05-05 19:12 | 25.23000 | 55.40546 | 303 ft | 144 kts | 304° |
| 2026-05-05 19:12 | 25.23537 | 55.39588 | 93 ft | 149 kts | 302° |
| 2026-05-05 19:13 | 25.24042 | 55.38669 | 31 ft | 126 kts | 304° |
| 2026-05-05 19:13 | 25.24420 | 55.37990 | 30 ft | 82 kts | 301° |
| 2026-05-05 19:13 | 25.24602 | 55.37582 | 27 ft | 34 kts | 282° |
| 2026-05-05 19:13 | 25.24612 | 55.37438 | 27 ft | 16 kts | 272° |
| 2026-05-05 19:14 | 25.24615 | 55.37313 | 26 ft | 16 kts | 275° |
| 2026-05-05 19:14 | 25.24659 | 55.37198 | 27 ft | 16 kts | 301° |
| 2026-05-05 19:14 | 25.24718 | 55.37091 | 27 ft | 16 kts | 302° |
| 2026-05-05 19:14 | 25.24775 | 55.36987 | 27 ft | 12 kts | 290° |
| 2026-05-05 19:15 | 25.24733 | 55.36933 | 26 ft | 10 kts | 219° |
| 2026-05-05 19:15 | 25.24741 | 55.36863 | 26 ft | 10 kts | 300° |
| 2026-05-05 19:15 | 25.24771 | 55.36790 | 26 ft | 10 kts | 284° |
| 2026-05-05 19:15 | 25.24785 | 55.36712 | 26 ft | 10 kts | 285° |
| 2026-05-05 19:16 | 25.24810 | 55.36637 | 28 ft | 10 kts | 295° |
| 2026-05-05 19:16 | 25.24844 | 55.36565 | 30 ft | 10 kts | 298° |
| 2026-05-05 19:16 | 25.24876 | 55.36498 | 30 ft | 8 kts | 283° |
| 2026-05-05 19:16 | 25.24847 | 55.36468 | 28 ft | 6 kts | 211° |
| 2026-05-05 19:17 | 25.24812 | 55.36445 | 30 ft | 5 kts | 211° |
| 2026-05-05 19:17 | 25.24803 | 55.36439 | 29 ft | 0 kts | 211° |